createdAt,value
2023-01-15T00:00:22.306Z,1.80
2023-01-15T00:02:50.306Z,2.40
2023-01-15T00:05:18.184Z,1.55
2023-01-15T00:07:46.011Z,1.80
2023-01-15T00:10:14.188Z,1.45
2023-01-15T00:12:42.117Z,1.70
2023-01-15T00:15:13.636Z,2.30
2023-01-15T00:17:43.365Z,1.90
2023-01-15T00:20:11.785Z,1.70
2023-01-15T00:22:40.564Z,1.90
2023-01-15T00:25:28.338Z,1.75
2023-01-15T00:27:57.396Z,1.80
2023-01-15T00:30:25.265Z,1.50
2023-01-15T00:32:55.076Z,1.23
2023-01-15T00:35:24.288Z,1.30
2023-01-15T00:37:52.441Z,1.55
2023-01-15T00:40:21.444Z,1.40
2023-01-15T00:42:54.573Z,1.33
2023-01-15T00:45:23.323Z,2.00
2023-01-15T00:47:56.557Z,1.75
2023-01-15T00:50:24.451Z,1.40
2023-01-15T00:52:52.500Z,1.45
2023-01-15T00:55:21.671Z,1.27
2023-01-15T00:57:49.485Z,1.60
2023-01-15T01:00:18.674Z,1.33
2023-01-15T01:02:47.541Z,1.60
2023-01-15T01:05:15.512Z,1.15
2023-01-15T01:07:43.287Z,1.73
2023-01-15T01:10:12.328Z,1.58
2023-01-15T01:12:40.583Z,1.73
2023-01-15T01:15:09.965Z,1.90
2023-01-15T01:17:39.521Z,1.33
2023-01-15T01:20:07.934Z,1.48
2023-01-15T01:22:35.700Z,1.63
2023-01-15T01:25:03.607Z,1.35
2023-01-15T01:27:31.721Z,2.03
2023-01-15T01:30:02.395Z,1.42
2023-01-15T01:32:30.349Z,1.70
2023-01-15T01:34:58.207Z,2.17
2023-01-15T01:37:26.320Z,2.00
2023-01-15T01:39:55.506Z,1.75
2023-01-15T01:42:23.518Z,2.03
2023-01-15T01:44:51.375Z,1.88
2023-01-15T01:47:23.833Z,1.50
2023-01-15T01:50:00.127Z,1.27
2023-01-15T01:52:33.068Z,2.33
2023-01-15T01:55:02.622Z,2.00
2023-01-15T01:57:31.082Z,1.60
2023-01-15T02:00:01.138Z,1.20
2023-01-15T02:02:30.705Z,1.52
2023-01-15T02:04:59.118Z,1.52
2023-01-15T02:07:33.192Z,1.58
2023-01-15T02:10:01.337Z,2.13
2023-01-15T02:12:36.757Z,1.92
2023-01-15T02:15:18.974Z,1.70
2023-01-15T02:17:56.088Z,2.13
2023-01-15T02:20:24.229Z,1.67
2023-01-15T02:23:10.175Z,1.55
2023-01-15T02:26:13.457Z,1.88
2023-01-15T02:28:47.329Z,1.65
2023-01-15T02:31:24.041Z,1.27
2023-01-15T02:34:20.555Z,1.45
2023-01-15T02:36:56.909Z,1.70
2023-01-15T02:39:30.535Z,1.52
2023-01-15T02:42:04.012Z,1.45
2023-01-15T02:44:42.231Z,1.45
2023-01-15T02:47:13.746Z,1.35
2023-01-15T02:49:43.314Z,1.40
2023-01-15T02:52:29.591Z,1.85
2023-01-15T02:55:04.008Z,1.40
2023-01-15T02:57:36.693Z,1.42
2023-01-15T03:00:09.960Z,1.65
2023-01-15T03:02:48.126Z,1.45
2023-01-15T03:05:31.454Z,1.58
2023-01-15T03:08:07.162Z,2.50
2023-01-15T03:11:03.501Z,1.48
2023-01-15T03:13:38.521Z,1.40
2023-01-15T03:16:35.283Z,1.10
2023-01-15T03:19:22.531Z,1.33
2023-01-15T03:22:10.952Z,2.53
2023-01-15T03:24:50.451Z,1.58
2023-01-15T03:27:20.908Z,1.60
2023-01-15T03:30:01.102Z,1.30
2023-01-15T03:32:31.337Z,1.30
2023-01-15T03:35:00.355Z,1.38
2023-01-15T03:37:29.685Z,1.60
2023-01-15T03:39:59.027Z,1.55
2023-01-15T03:42:40.815Z,1.67
2023-01-15T03:45:31.987Z,1.60
2023-01-15T03:48:30.886Z,1.27
2023-01-15T03:51:05.712Z,1.65
2023-01-15T03:53:50.294Z,1.92
2023-01-15T03:56:34.768Z,1.27
2023-01-15T03:59:19.772Z,2.08
2023-01-15T04:01:55.021Z,1.42
2023-01-15T04:04:26.470Z,1.20
2023-01-15T04:06:56.819Z,1.45
2023-01-15T04:09:25.152Z,1.98
2023-01-15T04:12:00.542Z,1.23
2023-01-15T04:14:33.317Z,2.05
2023-01-15T04:17:07.036Z,1.60
2023-01-15T04:19:34.988Z,1.40
2023-01-15T04:22:06.100Z,1.77
2023-01-15T04:24:34.291Z,1.13
2023-01-15T04:27:02.173Z,1.30
2023-01-15T04:29:30.077Z,1.50
2023-01-15T04:31:58.100Z,1.95
2023-01-15T04:34:27.445Z,1.40
2023-01-15T04:36:56.359Z,1.50
2023-01-15T04:39:24.338Z,1.70
2023-01-15T04:42:11.085Z,1.50
2023-01-15T04:44:39.639Z,1.27
2023-01-15T04:47:07.714Z,1.40
2023-01-15T04:49:36.144Z,1.27
2023-01-15T04:52:04.381Z,1.67
2023-01-15T04:54:33.166Z,1.38
2023-01-15T04:57:01.009Z,1.75
2023-01-15T04:59:28.899Z,1.50
2023-01-15T05:02:06.618Z,1.38
2023-01-15T05:04:35.426Z,1.67
2023-01-15T05:07:04.709Z,1.55
2023-01-15T05:09:33.007Z,1.70
2023-01-15T05:12:01.046Z,1.30
2023-01-15T05:14:29.153Z,1.40
2023-01-15T05:16:57.048Z,1.92
2023-01-15T05:19:24.883Z,1.67
2023-01-15T05:21:54.253Z,1.52
2023-01-15T05:24:22.220Z,1.42
2023-01-15T05:26:50.883Z,1.25
2023-01-15T05:29:18.689Z,1.23
2023-01-15T05:31:46.924Z,1.50
2023-01-15T05:34:14.939Z,1.20
2023-01-15T05:36:42.957Z,1.42
2023-01-15T05:39:11.082Z,1.30
2023-01-15T05:41:51.584Z,1.88
2023-01-15T05:44:25.715Z,1.40
2023-01-15T05:46:56.503Z,1.60
2023-01-15T05:49:27.159Z,1.77
2023-01-15T05:51:55.819Z,1.15
2023-01-15T05:54:26.519Z,1.20
2023-01-15T05:56:55.308Z,1.10
2023-01-15T05:59:25.981Z,1.83
2023-01-15T06:01:54.412Z,1.48
2023-01-15T06:04:22.996Z,1.45
2023-01-15T06:06:52.645Z,1.60
2023-01-15T06:09:22.890Z,1.42
2023-01-15T06:11:51.452Z,1.50
2023-01-15T06:14:19.920Z,1.70
2023-01-15T06:16:48.005Z,1.50
2023-01-15T06:19:16.022Z,1.40
2023-01-15T06:21:44.385Z,1.38
2023-01-15T06:24:12.315Z,1.52
2023-01-15T06:26:40.191Z,2.10
2023-01-15T06:29:08.196Z,1.30
2023-01-15T06:31:36.136Z,1.17
2023-01-15T06:34:04.061Z,1.27
2023-01-15T06:36:31.923Z,0.95
2023-01-15T06:38:59.896Z,1.15
2023-01-15T06:41:46.863Z,1.65
2023-01-15T06:44:36.373Z,1.20
2023-01-15T06:47:23.847Z,1.17
2023-01-15T06:49:55.497Z,1.00
2023-01-15T06:52:25.919Z,1.17
2023-01-15T06:54:54.391Z,1.17
2023-01-15T06:57:22.287Z,1.05
2023-01-15T06:59:51.274Z,0.70
2023-01-15T07:02:19.621Z,1.10
2023-01-15T07:04:49.011Z,1.08
2023-01-15T07:07:18.697Z,0.50
2023-01-15T07:09:46.506Z,0.88
2023-01-15T07:12:14.447Z,0.90
2023-01-15T07:14:42.353Z,1.48
2023-01-15T07:17:10.352Z,1.10
2023-01-15T07:19:38.734Z,1.13
2023-01-15T07:22:07.897Z,1.35
2023-01-15T07:24:35.967Z,1.00
2023-01-15T07:27:04.247Z,1.60
2023-01-15T07:29:32.190Z,1.50
2023-01-15T07:32:00.284Z,0.80
2023-01-15T07:34:28.139Z,1.45
2023-01-15T07:36:55.912Z,0.93
2023-01-15T07:39:24.072Z,2.10
2023-01-15T07:42:10.663Z,1.88
2023-01-15T07:44:57.403Z,1.55
2023-01-15T07:47:45.510Z,1.38
2023-01-15T07:50:22.240Z,1.30
2023-01-15T07:52:53.001Z,1.55
2023-01-15T07:55:22.382Z,1.35
2023-01-15T07:57:50.322Z,1.67
2023-01-15T08:00:22.941Z,1.67
2023-01-15T08:02:51.539Z,1.42
2023-01-15T08:05:19.942Z,1.58
2023-01-15T08:07:49.068Z,1.45
2023-01-15T08:10:17.139Z,1.80
2023-01-15T08:13:20.712Z,1.00
2023-01-15T08:15:48.781Z,1.05
2023-01-15T08:18:16.835Z,1.00
2023-01-15T08:20:47.036Z,1.73
2023-01-15T08:23:15.166Z,1.20
2023-01-15T08:25:46.291Z,1.02
2023-01-15T08:28:14.796Z,1.95
2023-01-15T08:30:42.857Z,1.30
2023-01-15T08:33:18.952Z,1.48
2023-01-15T08:35:46.862Z,0.90
2023-01-15T08:38:14.769Z,1.27
2023-01-15T08:41:03.537Z,1.05
2023-01-15T08:43:35.519Z,1.27
2023-01-15T08:46:09.052Z,1.58
2023-01-15T08:48:37.261Z,1.13
2023-01-15T08:51:10.266Z,0.77
2023-01-15T08:53:39.151Z,1.20
2023-01-15T08:56:17.364Z,1.17
2023-01-15T08:58:47.112Z,0.90
2023-01-15T09:01:16.182Z,1.10
2023-01-15T09:03:44.402Z,1.00
2023-01-15T09:06:13.578Z,1.23
2023-01-15T09:08:41.464Z,1.40
2023-01-15T09:11:12.571Z,1.52
2023-01-15T09:13:42.462Z,1.13
2023-01-15T09:16:12.164Z,0.65
2023-01-15T09:18:42.648Z,1.00
2023-01-15T09:21:11.037Z,1.20
2023-01-15T09:23:39.040Z,0.90
2023-01-15T09:26:23.526Z,1.45
2023-01-15T09:28:51.738Z,1.43
2023-01-15T09:31:19.895Z,1.35
2023-01-15T09:33:48.611Z,1.10
2023-01-15T09:36:24.037Z,0.82
2023-01-15T09:38:52.215Z,1.25
2023-01-15T09:41:39.301Z,1.38
2023-01-15T09:44:22.768Z,0.55
2023-01-15T09:47:05.082Z,1.52
2023-01-15T09:49:50.839Z,1.00
2023-01-15T09:52:26.062Z,0.55
2023-01-15T09:55:14.356Z,1.20
2023-01-15T09:57:46.539Z,1.50
2023-01-15T10:00:22.201Z,1.30
2023-01-15T10:03:01.950Z,1.15
2023-01-15T10:05:38.172Z,1.15
2023-01-15T10:08:23.155Z,1.08
2023-01-15T10:11:12.002Z,1.67
2023-01-15T10:13:47.733Z,1.17
2023-01-15T10:16:25.566Z,1.88
2023-01-15T10:18:54.878Z,1.15
2023-01-15T10:22:01.082Z,1.08
2023-01-15T10:27:21.848Z,1.40
2023-01-15T10:30:17.582Z,0.73
2023-01-15T10:35:38.470Z,1.60
2023-01-15T10:41:16.880Z,1.08
2023-01-15T10:43:55.699Z,1.50
2023-01-15T10:46:33.397Z,1.13
2023-01-15T10:49:15.556Z,1.63
2023-01-15T10:51:48.388Z,1.10
2023-01-15T10:54:39.324Z,1.15
2023-01-15T10:57:37.093Z,1.10
2023-01-15T11:00:05.579Z,1.08
2023-01-15T11:02:40.751Z,0.80
2023-01-15T11:05:20.552Z,1.00
2023-01-15T11:08:26.274Z,1.80
2023-01-15T11:10:41.763Z,1.67
2023-01-15T11:13:44.679Z,1.08
2023-01-15T11:16:45.520Z,1.90
2023-01-15T11:19:40.937Z,1.50
2023-01-15T11:22:15.721Z,1.10
2023-01-15T11:24:54.841Z,1.17
2023-01-15T11:27:30.098Z,1.20
2023-01-15T11:29:59.841Z,1.70
2023-01-15T11:32:36.594Z,1.10
2023-01-15T11:35:18.601Z,1.63
2023-01-15T11:37:46.702Z,1.20
2023-01-15T11:40:23.541Z,1.15
2023-01-15T11:43:11.108Z,1.77
2023-01-15T11:46:08.963Z,1.70
2023-01-15T11:49:06.533Z,1.13
2023-01-15T11:51:42.250Z,1.70
2023-01-15T11:54:13.850Z,1.25
2023-01-15T11:56:46.392Z,1.10
2023-01-15T11:59:18.938Z,1.20
2023-01-15T12:01:54.929Z,2.17
2023-01-15T12:04:37.405Z,1.30
2023-01-15T12:07:11.716Z,1.23
2023-01-15T12:09:53.109Z,1.48
2023-01-15T12:12:28.553Z,0.95
2023-01-15T12:15:17.075Z,1.65
2023-01-15T12:18:16.254Z,1.40
2023-01-15T12:21:11.863Z,1.45
2023-01-15T12:24:01.504Z,1.70
2023-01-15T12:26:34.681Z,1.65
2023-01-15T12:29:27.394Z,1.45
2023-01-15T12:32:09.441Z,1.92
2023-01-15T12:34:54.634Z,2.35
2023-01-15T12:37:30.691Z,1.48
2023-01-15T12:40:15.439Z,1.60
2023-01-15T12:43:05.007Z,1.45
2023-01-15T12:45:38.429Z,1.45
2023-01-15T12:48:27.057Z,1.67
2023-01-15T12:51:01.176Z,1.17
2023-01-15T12:53:32.203Z,1.57
2023-01-15T12:56:09.802Z,2.00
2023-01-15T12:59:02.418Z,1.58
2023-01-15T13:01:53.827Z,2.05
2023-01-15T13:04:30.366Z,1.48
2023-01-15T13:07:22.365Z,1.33
2023-01-15T13:10:11.040Z,1.50
2023-01-15T13:12:39.086Z,1.92
2023-01-15T13:15:07.688Z,1.45
2023-01-15T13:18:06.639Z,1.95
2023-01-15T13:20:55.035Z,1.02
2023-01-15T13:23:51.858Z,1.30
2023-01-15T13:27:00.931Z,1.08
2023-01-15T13:30:03.165Z,1.60
2023-01-15T13:32:39.443Z,1.23
2023-01-15T13:35:25.425Z,1.42
2023-01-15T13:37:56.217Z,1.38
2023-01-15T13:40:44.024Z,1.60
2023-01-15T13:43:34.794Z,1.20
2023-01-15T13:46:06.863Z,0.77
2023-01-15T13:48:47.764Z,1.73
2023-01-15T13:51:30.276Z,1.17
2023-01-15T13:54:00.800Z,1.38
2023-01-15T13:56:36.054Z,2.50
2023-01-15T13:59:27.898Z,1.60
2023-01-15T14:01:55.913Z,2.03
2023-01-15T14:04:38.774Z,1.15
2023-01-15T14:07:19.719Z,1.35
2023-01-15T14:09:48.076Z,1.17
2023-01-15T14:12:38.787Z,1.42
2023-01-15T14:15:23.951Z,1.00
2023-01-15T14:18:04.308Z,1.42
2023-01-15T14:21:02.942Z,1.60
2023-01-15T14:23:53.896Z,1.75
2023-01-15T14:26:54.184Z,1.50
2023-01-15T14:29:43.551Z,2.72
2023-01-15T14:32:34.501Z,1.05
2023-01-15T14:35:03.350Z,1.67
2023-01-15T14:37:57.012Z,1.55
2023-01-15T14:40:29.981Z,1.65
2023-01-15T14:43:01.827Z,1.08
2023-01-15T14:45:44.850Z,1.67
2023-01-15T14:48:38.714Z,1.25
2023-01-15T14:51:13.667Z,2.20
2023-01-15T14:53:55.106Z,1.58
2023-01-15T14:56:57.014Z,1.80
2023-01-15T14:59:48.707Z,1.35
2023-01-15T15:02:31.560Z,0.80
2023-01-15T15:05:02.378Z,1.42
2023-01-15T15:07:43.494Z,1.52
2023-01-15T15:10:24.040Z,1.63
2023-01-15T15:13:29.543Z,1.77
2023-01-15T15:16:12.041Z,1.90
2023-01-15T15:19:00.300Z,1.30
2023-01-15T15:21:38.005Z,1.90
2023-01-15T15:24:11.306Z,1.70
2023-01-15T15:26:40.097Z,1.88
2023-01-15T15:29:14.017Z,1.27
2023-01-15T15:31:48.351Z,1.55
2023-01-15T15:34:24.804Z,1.73
2023-01-15T15:36:53.296Z,1.88
2023-01-15T15:39:37.220Z,2.25
2023-01-15T15:42:30.501Z,1.48
2023-01-15T15:45:19.273Z,1.48
2023-01-15T15:48:05.967Z,1.83
2023-01-15T15:50:35.763Z,2.03
2023-01-15T15:53:06.628Z,1.90
2023-01-15T15:55:44.132Z,1.80
2023-01-15T15:58:27.857Z,1.50
2023-01-15T16:00:57.573Z,2.17
2023-01-15T16:03:28.083Z,1.95
2023-01-15T16:06:02.083Z,1.85
2023-01-15T16:08:32.101Z,2.00
2023-01-15T16:11:11.338Z,2.30
2023-01-15T16:13:44.459Z,1.80
2023-01-15T16:16:14.215Z,2.05
2023-01-15T16:18:46.615Z,1.38
2023-01-15T16:21:28.834Z,1.70
2023-01-15T16:24:05.217Z,1.73
2023-01-15T16:26:47.803Z,1.95
2023-01-15T16:29:23.658Z,2.05
2023-01-15T16:31:52.172Z,2.08
2023-01-15T16:34:23.251Z,1.90
2023-01-15T16:36:51.490Z,1.70
2023-01-15T16:39:28.529Z,1.15
2023-01-15T16:41:58.163Z,1.10
2023-01-15T16:44:47.821Z,1.42
2023-01-15T16:47:27.603Z,1.25
2023-01-15T16:50:24.626Z,1.50
2023-01-15T16:52:59.904Z,1.67
2023-01-15T16:55:43.224Z,1.42
2023-01-15T16:58:15.491Z,1.70
2023-01-15T17:00:47.000Z,1.23
2023-01-15T17:03:16.510Z,1.42
2023-01-15T17:05:46.430Z,1.40
2023-01-15T17:08:32.347Z,1.30
2023-01-15T17:11:02.440Z,0.82
2023-01-15T17:13:38.985Z,1.10
2023-01-15T17:16:25.201Z,0.63
2023-01-15T17:18:53.236Z,0.80
2023-01-15T17:21:27.691Z,0.68
2023-01-15T17:23:56.629Z,0.60
2023-01-15T17:26:27.298Z,0.90
2023-01-15T17:29:05.010Z,0.90
2023-01-15T17:31:36.147Z,0.90
2023-01-15T17:34:04.244Z,1.05
2023-01-15T17:36:34.477Z,0.90
2023-01-15T17:39:02.652Z,1.20
2023-01-15T17:41:30.876Z,1.20
2023-01-15T17:43:59.082Z,1.30
2023-01-15T17:46:27.374Z,1.60
2023-01-15T17:48:55.438Z,1.60
2023-01-15T17:51:23.686Z,1.90
2023-01-15T17:53:51.760Z,2.40
2023-01-15T17:56:38.451Z,2.83
2023-01-15T17:59:25.070Z,2.90
2023-01-15T18:02:12.551Z,2.60
2023-01-15T18:05:04.443Z,2.60
2023-01-15T18:07:38.866Z,3.00
2023-01-15T18:10:08.869Z,2.60
2023-01-15T18:12:37.152Z,2.63
2023-01-15T18:15:05.625Z,2.28
2023-01-15T18:17:33.730Z,2.47
2023-01-15T18:20:01.778Z,2.72
2023-01-15T18:22:30.282Z,2.50
2023-01-15T18:24:58.433Z,2.35
2023-01-15T18:27:30.182Z,2.70
2023-01-15T18:29:59.579Z,1.98
2023-01-15T18:32:31.142Z,2.30
2023-01-15T18:34:59.301Z,3.42
2023-01-15T18:37:27.598Z,2.50
2023-01-15T18:39:55.754Z,2.25
2023-01-15T18:42:42.976Z,2.38
2023-01-15T18:45:30.355Z,2.88
2023-01-15T18:48:02.401Z,3.13
2023-01-15T18:50:31.717Z,2.40
2023-01-15T18:53:02.911Z,2.30
2023-01-15T18:55:33.475Z,2.50
2023-01-15T18:58:02.526Z,3.17
2023-01-15T19:00:30.669Z,2.60
2023-01-15T19:02:58.863Z,2.20
2023-01-15T19:05:27.028Z,2.47
2023-01-15T19:07:54.914Z,1.27
2023-01-15T19:10:22.961Z,1.77
2023-01-15T19:12:51.114Z,1.30
2023-01-15T19:15:39.329Z,1.52
2023-01-15T19:18:29.291Z,1.90
2023-01-15T19:20:57.179Z,1.95
2023-01-15T19:23:25.268Z,2.15
2023-01-15T19:25:53.232Z,1.48
2023-01-15T19:28:21.894Z,4.22
2023-01-15T19:31:08.703Z,1.60
2023-01-15T19:33:37.267Z,1.83
2023-01-15T19:36:05.853Z,2.20
2023-01-15T19:38:37.074Z,2.33
2023-01-15T19:41:30.626Z,1.70
2023-01-15T19:44:17.067Z,2.03
2023-01-15T19:47:03.967Z,1.85
2023-01-15T19:49:54.855Z,1.88
2023-01-15T19:52:34.912Z,2.10
2023-01-15T19:55:05.435Z,1.55
2023-01-15T19:57:33.621Z,1.83
2023-01-15T20:00:01.613Z,2.00
2023-01-15T20:02:29.572Z,2.10
2023-01-15T20:04:57.481Z,1.80
2023-01-15T20:07:25.551Z,1.88
2023-01-15T20:09:53.580Z,1.92
2023-01-15T20:12:39.943Z,2.00
2023-01-15T20:15:09.476Z,2.17
2023-01-15T20:17:37.601Z,1.98
2023-01-15T20:20:06.158Z,2.30
2023-01-15T20:22:35.036Z,2.20
2023-01-15T20:25:03.311Z,2.65
2023-01-15T20:27:35.234Z,2.30
2023-01-15T20:30:08.454Z,2.40
2023-01-15T20:32:37.903Z,1.83
2023-01-15T20:35:07.811Z,2.85
2023-01-15T20:37:35.818Z,2.40
2023-01-15T20:40:04.868Z,2.00
2023-01-15T20:42:51.327Z,2.58
2023-01-15T20:45:19.349Z,2.70
2023-01-15T20:48:05.950Z,2.47
2023-01-15T20:50:36.570Z,2.20
2023-01-15T20:53:06.455Z,2.92
2023-01-15T20:55:53.787Z,2.67
2023-01-15T20:58:23.955Z,2.42
2023-01-15T21:00:52.766Z,2.10
2023-01-15T21:03:21.279Z,2.35
2023-01-15T21:05:49.282Z,2.42
2023-01-15T21:08:17.212Z,2.47
2023-01-15T21:10:45.080Z,2.70
2023-01-15T21:13:12.963Z,2.30
2023-01-15T21:15:42.867Z,2.65
2023-01-15T21:18:11.806Z,2.92
2023-01-15T21:20:39.862Z,2.88
2023-01-15T21:23:07.692Z,3.55
2023-01-15T21:25:35.472Z,3.10
2023-01-15T21:28:03.337Z,2.60
2023-01-15T21:30:31.383Z,2.38
2023-01-15T21:32:59.366Z,2.30
2023-01-15T21:35:27.482Z,2.92
2023-01-15T21:37:55.459Z,2.42
2023-01-15T21:40:23.402Z,2.30
2023-01-15T21:43:09.721Z,2.30
2023-01-15T21:45:37.800Z,2.17
2023-01-15T21:48:05.917Z,1.80
2023-01-15T21:50:35.214Z,1.90
2023-01-15T21:53:03.345Z,2.08
2023-01-15T21:55:31.247Z,1.60
2023-01-15T21:58:00.314Z,2.00
2023-01-15T22:00:28.282Z,1.95
2023-01-15T22:02:58.388Z,2.30
2023-01-15T22:05:26.386Z,1.35
2023-01-15T22:07:54.227Z,1.65
2023-01-15T22:10:22.257Z,1.88
2023-01-15T22:12:50.350Z,1.40
2023-01-15T22:15:18.537Z,2.00
2023-01-15T22:17:51.595Z,1.80
2023-01-15T22:20:20.315Z,1.92
2023-01-15T22:22:48.809Z,1.90
2023-01-15T22:25:16.879Z,1.80
2023-01-15T22:27:44.681Z,1.70
2023-01-15T22:30:15.568Z,2.10
2023-01-15T22:32:43.630Z,2.00
2023-01-15T22:35:11.522Z,2.10
2023-01-15T22:37:41.466Z,1.65
2023-01-15T22:40:12.091Z,1.80
2023-01-15T22:42:40.080Z,1.80
2023-01-15T22:45:08.175Z,1.90
2023-01-15T22:47:36.270Z,1.73
2023-01-15T22:50:04.832Z,2.08
2023-01-15T22:52:32.713Z,1.60
2023-01-15T22:55:00.978Z,2.05
2023-01-15T22:57:31.119Z,1.52
2023-01-15T22:59:59.263Z,1.88
2023-01-15T23:02:45.789Z,1.50
2023-01-15T23:05:14.311Z,1.65
2023-01-15T23:07:42.271Z,1.85
2023-01-15T23:10:12.131Z,1.58
2023-01-15T23:12:41.350Z,2.05
2023-01-15T23:15:13.170Z,1.90
2023-01-15T23:17:41.709Z,1.80
2023-01-15T23:20:11.260Z,1.63
2023-01-15T23:22:39.277Z,1.67
2023-01-15T23:25:09.122Z,1.75
2023-01-15T23:27:37.287Z,1.70
2023-01-15T23:30:05.640Z,2.08
2023-01-15T23:32:33.546Z,1.60
2023-01-15T23:35:01.467Z,1.58
2023-01-15T23:37:30.546Z,1.50
2023-01-15T23:39:58.580Z,1.67
2023-01-15T23:42:45.623Z,1.63
2023-01-15T23:45:32.320Z,1.45
2023-01-15T23:48:00.412Z,1.27
2023-01-15T23:50:28.285Z,1.85
2023-01-15T23:52:56.409Z,1.90
2023-01-15T23:55:24.248Z,1.77
2023-01-15T23:57:52.468Z,1.30
